Time;durP1;ratioP1;P1;durP2;ratioP2;P2;SDS_P1;SDS_P2;PMS_P1;PMS_P2;Temp;Humidity;BMP_temperature;BMP_pressure;BME280_temperature;BME280_humidity;BME280_pressure;Samples;Min_cycle;Max_cycle;Signal;HPM_P1;HPM_P2
2024/02/24 00:00:37;;;;;;;4.38;1.80;;;6.80;99.90;;;;;;5126079;27;20027;-64
2024/02/24 00:03:03;;;;;;;7.63;2.88;;;6.80;99.90;;;;;;5119430;27;20114;-64
2024/02/24 00:05:29;;;;;;;3.20;1.88;;;6.80;99.90;;;;;;5126413;27;20039;-64
2024/02/24 00:07:55;;;;;;;4.43;1.90;;;6.80;99.90;;;;;;5111424;27;20541;-64
2024/02/24 00:10:22;;;;;;;5.70;2.33;;;6.80;99.90;;;;;;5119944;27;20047;-63
2024/02/24 00:12:49;;;;;;;6.00;2.22;;;6.80;99.90;;;;;;5117246;27;20100;-63
2024/02/24 00:15:14;;;;;;;5.00;2.25;;;6.80;99.90;;;;;;5111208;27;20074;-64
2024/02/24 00:17:41;;;;;;;6.47;2.40;;;6.80;99.90;;;;;;5113565;27;20134;-64
2024/02/24 00:20:07;;;;;;;5.30;2.20;;;6.70;99.90;;;;;;5117401;27;20114;-64
2024/02/24 00:22:36;;;;;;;7.90;2.10;;;6.80;99.90;;;;;;5120965;27;20035;-64
2024/02/24 00:25:02;;;;;;;5.00;2.20;;;6.80;99.90;;;;;;5117299;27;20606;-63
2024/02/24 00:27:28;;;;;;;3.95;2.50;;;6.80;99.90;;;;;;5123473;27;20038;-64
2024/02/24 00:29:54;;;;;;;5.30;2.08;;;6.80;99.90;;;;;;5123297;27;20226;-64
2024/02/24 00:32:20;;;;;;;4.97;2.20;;;6.80;99.90;;;;;;5119221;27;20191;-64
2024/02/24 00:34:46;;;;;;;5.00;2.17;;;6.80;99.90;;;;;;5126005;27;20043;-64
2024/02/24 00:37:12;;;;;;;4.40;2.65;;;6.70;99.90;;;;;;5122239;27;20047;-64
2024/02/24 00:39:38;;;;;;;4.25;2.25;;;6.70;99.90;;;;;;5123335;27;20100;-64
2024/02/24 00:42:04;;;;;;;6.15;2.15;;;6.70;99.90;;;;;;5122530;27;20038;-64
2024/02/24 00:44:30;;;;;;;5.88;2.30;;;6.70;99.90;;;;;;5123698;27;20050;-64
2024/02/24 00:46:56;;;;;;;6.35;2.47;;;6.60;99.90;;;;;;5113655;27;20039;-64
2024/02/24 00:49:22;;;;;;;5.18;2.20;;;6.60;99.90;;;;;;5116609;27;20096;-63
2024/02/24 00:51:48;;;;;;;3.58;2.28;;;6.60;99.90;;;;;;5118993;27;20123;-63
2024/02/24 00:54:14;;;;;;;6.05;2.67;;;6.50;99.90;;;;;;5124807;27;20434;-64
2024/02/24 00:56:40;;;;;;;4.00;2.40;;;6.50;99.90;;;;;;5114687;27;20486;-64
2024/02/24 00:59:06;;;;;;;7.60;2.63;;;6.50;99.90;;;;;;5123003;27;20099;-64
2024/02/24 01:01:32;;;;;;;4.90;2.70;;;6.50;99.90;;;;;;5121297;27;20049;-64
2024/02/24 01:03:57;;;;;;;7.15;2.78;;;6.40;99.90;;;;;;5118266;27;20040;-63
2024/02/24 01:06:23;;;;;;;4.43;2.50;;;6.40;99.90;;;;;;5122209;27;20797;-64
2024/02/24 01:08:49;;;;;;;5.32;2.47;;;6.40;99.90;;;;;;5116462;27;20070;-64
2024/02/24 01:11:15;;;;;;;4.07;2.30;;;6.40;99.90;;;;;;5123820;27;20039;-64
2024/02/24 01:13:44;;;;;;;5.70;2.85;;;6.30;99.90;;;;;;5117227;27;20050;-64
2024/02/24 01:16:10;;;;;;;3.22;2.22;;;6.30;99.90;;;;;;5117518;27;20541;-63
2024/02/24 01:18:35;;;;;;;3.33;2.58;;;6.30;99.90;;;;;;5115401;27;20035;-64
2024/02/24 01:21:05;;;;;;;5.70;2.63;;;6.20;99.90;;;;;;5120972;27;20049;-64
2024/02/24 01:23:31;;;;;;;3.63;2.38;;;6.20;99.90;;;;;;5123090;27;20038;-63
2024/02/24 01:25:56;;;;;;;4.88;2.30;;;6.20;99.90;;;;;;5121715;27;20038;-64
2024/02/24 01:28:22;;;;;;;4.57;2.55;;;6.20;99.90;;;;;;5120105;27;20038;-63
2024/02/24 01:30:49;;;;;;;3.78;2.65;;;6.20;99.90;;;;;;5117505;27;20061;-64
2024/02/24 01:33:15;;;;;;;2.60;2.40;;;6.10;99.90;;;;;;5110460;27;20418;-64
2024/02/24 01:35:41;;;;;;;5.88;2.83;;;6.10;99.90;;;;;;5129239;27;20027;-64
2024/02/24 01:38:06;;;;;;;5.35;2.63;;;6.10;99.90;;;;;;5120211;27;20089;-64
2024/02/24 01:40:33;;;;;;;4.55;2.70;;;6.10;99.90;;;;;;5120928;27;20437;-63
2024/02/24 01:42:58;;;;;;;4.32;3.05;;;6.00;99.90;;;;;;5121113;27;20425;-64
2024/02/24 01:45:25;;;;;;;5.93;2.67;;;6.00;99.90;;;;;;5110566;27;20066;-63
2024/02/24 01:47:52;;;;;;;6.63;2.60;;;6.10;99.90;;;;;;5119784;27;20087;-63
2024/02/24 01:50:19;;;;;;;5.38;2.80;;;6.00;99.90;;;;;;5122078;27;20332;-63
2024/02/24 01:52:48;;;;;;;3.58;2.80;;;6.00;99.90;;;;;;5118033;27;20322;-63
2024/02/24 01:55:14;;;;;;;6.43;2.83;;;6.00;99.90;;;;;;5124352;27;20058;-63
2024/02/24 01:57:44;;;;;;;4.65;2.70;;;6.00;99.90;;;;;;5117064;27;20493;-64
2024/02/24 02:00:11;;;;;;;6.40;2.95;;;6.00;99.90;;;;;;5115885;27;20039;-64
2024/02/24 02:02:38;;;;;;;4.97;3.20;;;6.00;99.90;;;;;;5109586;27;20042;-63
2024/02/24 02:05:06;;;;;;;4.70;3.35;;;5.90;99.90;;;;;;5109064;27;20050;-64
2024/02/24 02:07:33;;;;;;;4.80;3.70;;;5.90;99.90;;;;;;5121757;27;20526;-64
2024/02/24 02:09:59;;;;;;;5.13;3.08;;;5.90;99.90;;;;;;5122445;27;20047;-64
2024/02/24 02:12:26;;;;;;;6.10;3.30;;;5.80;99.90;;;;;;5116247;27;20050;-63
2024/02/24 02:14:52;;;;;;;5.95;3.53;;;5.90;99.90;;;;;;5121379;27;20380;-66
2024/02/24 02:17:19;;;;;;;5.60;3.17;;;5.90;99.90;;;;;;5117510;27;20123;-64
2024/02/24 02:19:44;;;;;;;5.00;3.35;;;5.80;99.90;;;;;;5118763;27;20565;-63
2024/02/24 02:22:16;;;;;;;4.65;2.95;;;5.90;99.90;;;;;;5115487;27;20114;-64
2024/02/24 02:24:45;;;;;;;4.22;3.15;;;5.80;99.90;;;;;;5114656;27;20107;-63
2024/02/24 02:27:11;;;;;;;;;;;5.80;99.90;;;;;;5120205;27;20072;-64
2024/02/24 02:29:37;;;;;;;6.13;3.38;;;5.70;99.90;;;;;;5110961;27;19920;-64
2024/02/24 02:32:03;;;;;;;3.72;3.10;;;5.70;99.90;;;;;;5110260;27;20118;-64
2024/02/24 02:34:29;;;;;;;6.55;3.05;;;5.70;99.90;;;;;;5121668;27;20034;-64
2024/02/24 02:36:54;;;;;;;5.32;3.40;;;5.70;99.90;;;;;;5112363;27;20650;-64
2024/02/24 02:39:20;;;;;;;5.85;3.20;;;5.70;99.90;;;;;;5120271;27;20038;-64
2024/02/24 02:41:46;;;;;;;5.40;3.13;;;5.70;99.90;;;;;;5122137;27;20168;-62
2024/02/24 02:44:13;;;;;;;7.13;3.47;;;5.60;99.90;;;;;;5114377;27;20379;-63
2024/02/24 02:46:44;;;;;;;6.68;3.50;;;5.60;99.90;;;;;;5108460;27;20577;-63
2024/02/24 02:49:10;;;;;;;6.68;3.25;;;5.50;99.90;;;;;;5113958;27;20610;-64
2024/02/24 02:51:36;;;;;;;5.20;3.53;;;5.50;99.90;;;;;;5119031;27;20121;-63
2024/02/24 02:54:01;;;;;;;4.40;3.30;;;5.50;99.90;;;;;;5120853;27;20389;-63
2024/02/24 02:56:27;;;;;;;8.30;3.15;;;5.50;99.90;;;;;;5113546;27;20078;-64
2024/02/24 02:58:53;;;;;;;5.13;3.40;;;5.50;99.90;;;;;;5119601;27;20035;-63
2024/02/24 03:01:18;;;;;;;7.43;3.47;;;5.50;99.90;;;;;;5122621;27;20045;-64
2024/02/24 03:03:44;;;;;;;5.72;3.30;;;5.40;99.90;;;;;;5120809;27;20035;-63
2024/02/24 03:06:10;;;;;;;6.45;3.42;;;5.50;99.90;;;;;;5117765;27;20398;-63
2024/02/24 03:08:35;;;;;;;7.03;3.55;;;5.40;99.90;;;;;;5118234;27;20042;-64
2024/02/24 03:11:02;;;;;;;4.07;3.13;;;5.40;99.90;;;;;;5108621;27;20154;-64
2024/02/24 03:13:28;;;;;;;5.18;3.13;;;5.40;99.90;;;;;;5120194;27;20085;-64
2024/02/24 03:15:55;;;;;;;5.07;3.25;;;5.40;99.90;;;;;;5117965;27;20038;-63
2024/02/24 03:18:21;;;;;;;5.15;3.33;;;5.30;99.90;;;;;;5111037;27;20031;-63
2024/02/24 03:20:47;;;;;;;3.45;3.05;;;5.30;99.90;;;;;;5116870;28;20553;-64
2024/02/24 03:23:14;;;;;;;3.83;3.35;;;5.30;99.90;;;;;;5115800;27;20031;-63
2024/02/24 03:25:40;;;;;;;6.68;3.30;;;5.30;99.90;;;;;;5119998;28;20070;-64
2024/02/24 03:28:06;;;;;;;7.07;3.20;;;5.20;99.90;;;;;;5121110;27;20039;-64
2024/02/24 03:30:31;;;;;;;6.82;2.83;;;5.20;99.90;;;;;;5113704;27;20131;-64
2024/02/24 03:32:57;;;;;;;5.35;2.90;;;5.20;99.90;;;;;;5121721;27;20039;-63
2024/02/24 03:35:23;;;;;;;10.85;3.17;;;5.20;99.90;;;;;;5120914;27;20613;-64
2024/02/24 03:37:50;;;;;;;6.03;2.70;;;5.20;99.90;;;;;;5111438;27;20133;-63
2024/02/24 03:40:15;;;;;;;8.13;3.33;;;5.20;99.90;;;;;;5115476;28;20103;-63
2024/02/24 03:42:41;;;;;;;5.82;3.38;;;5.10;99.90;;;;;;5120432;28;20035;-64
2024/02/24 03:45:08;;;;;;;3.92;3.15;;;5.20;99.90;;;;;;5119677;28;20096;-64
2024/02/24 03:47:33;;;;;;;4.32;2.92;;;5.10;99.90;;;;;;5121498;28;20043;-64
2024/02/24 03:49:59;;;;;;;6.18;2.97;;;5.10;99.90;;;;;;5121613;27;20049;-64
2024/02/24 03:52:25;;;;;;;4.68;3.33;;;5.20;99.90;;;;;;5122174;27;20068;-64
2024/02/24 03:54:50;;;;;;;4.28;3.10;;;5.20;99.90;;;;;;5120849;27;20058;-63
2024/02/24 03:57:16;;;;;;;5.50;3.53;;;5.20;99.90;;;;;;5116513;27;20035;-63
2024/02/24 03:59:42;;;;;;;5.57;3.05;;;5.10;99.90;;;;;;5110934;27;20306;-64
2024/02/24 04:02:08;;;;;;;7.43;3.65;;;5.10;99.90;;;;;;5114020;27;20051;-64
2024/02/24 04:04:33;;;;;;;5.47;3.45;;;5.10;99.90;;;;;;5114592;27;20039;-64
2024/02/24 04:06:59;;;;;;;3.70;3.00;;;5.10;99.90;;;;;;5109197;28;20046;-63
2024/02/24 04:09:25;;;;;;;5.00;3.28;;;5.00;99.90;;;;;;5113144;28;20520;-64
2024/02/24 04:11:52;;;;;;;4.85;3.20;;;5.00;99.90;;;;;;5117550;28;20126;-63
2024/02/24 04:14:18;;;;;;;5.03;2.45;;;5.00;99.90;;;;;;5119115;27;20049;-63
2024/02/24 04:16:43;;;;;;;6.10;3.00;;;5.00;99.90;;;;;;5120061;27;20495;-64
2024/02/24 04:19:10;;;;;;;5.43;3.35;;;5.00;99.90;;;;;;5113574;28;20042;-64
2024/02/24 04:21:35;;;;;;;6.07;3.22;;;5.00;99.90;;;;;;5112504;27;20042;-63
2024/02/24 04:24:01;;;;;;;3.88;2.97;;;5.00;99.90;;;;;;5115796;27;20028;-64
2024/02/24 04:26:27;;;;;;;6.32;3.53;;;4.90;99.90;;;;;;5121274;27;20035;-64
2024/02/24 04:28:52;;;;;;;10.25;4.05;;;4.90;99.90;;;;;;5122857;27;20669;-64
2024/02/24 04:31:18;;;;;;;4.97;3.50;;;4.90;99.90;;;;;;5124308;27;20035;-63
2024/02/24 04:33:44;;;;;;;4.60;3.00;;;4.90;99.90;;;;;;5121963;27;20166;-64
2024/02/24 04:36:10;;;;;;;6.70;3.50;;;4.90;99.90;;;;;;5126356;27;20044;-64
2024/02/24 04:38:35;;;;;;;6.78;3.38;;;4.90;99.90;;;;;;5119884;27;20114;-64
2024/02/24 04:41:01;;;;;;;6.15;4.20;;;4.90;99.90;;;;;;5124139;27;20046;-62
2024/02/24 04:43:27;;;;;;;7.53;3.58;;;4.90;99.90;;;;;;5123973;27;20340;-64
2024/02/24 04:45:53;;;;;;;6.22;3.45;;;4.90;99.90;;;;;;5120353;27;20043;-64
2024/02/24 04:48:19;;;;;;;5.88;3.42;;;4.90;99.90;;;;;;5118498;27;20046;-64
2024/02/24 04:50:44;;;;;;;8.70;3.38;;;4.80;99.90;;;;;;5117632;27;20107;-64
2024/02/24 04:53:10;;;;;;;6.88;3.50;;;4.90;99.90;;;;;;5120604;27;20126;-63
2024/02/24 04:55:36;;;;;;;5.82;3.33;;;4.80;99.90;;;;;;5119421;27;20035;-64
2024/02/24 04:58:02;;;;;;;4.03;2.95;;;4.80;99.90;;;;;;5123110;27;20042;-64
2024/02/24 05:00:28;;;;;;;4.82;2.95;;;4.80;99.90;;;;;;5124501;27;20031;-64
2024/02/24 05:02:53;;;;;;;5.97;3.13;;;4.80;99.90;;;;;;5117003;27;20478;-64
2024/02/24 05:05:19;;;;;;;5.90;3.17;;;4.80;99.90;;;;;;5124217;27;20375;-64
2024/02/24 05:07:45;;;;;;;5.28;2.97;;;4.80;99.90;;;;;;5117989;27;20043;-63
2024/02/24 05:10:11;;;;;;;3.85;2.90;;;4.70;99.90;;;;;;5124330;27;20443;-64
2024/02/24 05:12:36;;;;;;;5.82;3.08;;;4.70;99.90;;;;;;5120936;27;20063;-64
2024/02/24 05:15:02;;;;;;;7.18;3.65;;;4.70;99.90;;;;;;5117952;27;20552;-63
2024/02/24 05:17:28;;;;;;;7.45;3.13;;;4.70;99.90;;;;;;5117693;27;20860;-63
2024/02/24 05:19:54;;;;;;;3.88;2.85;;;4.60;99.90;;;;;;5118646;27;20448;-64
2024/02/24 05:22:19;;;;;;;5.30;3.10;;;4.60;99.90;;;;;;5117230;27;20035;-63
2024/02/24 05:24:46;;;;;;;8.63;3.90;;;4.60;99.90;;;;;;5123150;27;20031;-63
2024/02/24 05:27:12;;;;;;;6.35;3.38;;;4.60;99.90;;;;;;5118434;27;20088;-64
2024/02/24 05:29:45;;;;;;;5.10;3.05;;;4.60;99.90;;;;;;5124049;27;20043;-64
2024/02/24 05:32:14;;;;;;;8.25;3.05;;;4.50;99.90;;;;;;5119684;27;20303;-64
2024/02/24 05:34:39;;;;;;;9.07;3.45;;;4.60;99.90;;;;;;5124558;27;20034;-63
2024/02/24 05:37:05;;;;;;;6.47;3.25;;;4.60;99.90;;;;;;5116366;27;20046;-64
2024/02/24 05:39:31;;;;;;;6.78;3.42;;;4.60;99.90;;;;;;5111414;27;20231;-64
2024/02/24 05:41:57;;;;;;;7.35;3.30;;;4.60;99.90;;;;;;5118866;27;20035;-63
2024/02/24 05:44:22;;;;;;;4.93;3.25;;;4.60;99.90;;;;;;5120875;27;20031;-64
2024/02/24 05:46:48;;;;;;;3.97;3.20;;;4.60;99.90;;;;;;5121060;27;20043;-64
2024/02/24 05:49:14;;;;;;;5.85;3.30;;;4.50;99.90;;;;;;5121668;27;20035;-63
2024/02/24 05:51:42;;;;;;;4.18;3.10;;;4.50;99.90;;;;;;5115527;27;20516;-63
2024/02/24 05:54:08;;;;;;;5.93;3.08;;;4.50;99.90;;;;;;5110331;27;20047;-63
2024/02/24 05:56:34;;;;;;;7.47;3.38;;;4.60;99.90;;;;;;5122299;27;20107;-64
2024/02/24 05:59:00;;;;;;;4.80;3.50;;;4.60;99.90;;;;;;5128926;27;20154;-64
2024/02/24 06:01:26;;;;;;;4.18;3.35;;;4.40;99.90;;;;;;5127498;27;20035;-64
2024/02/24 06:03:52;;;;;;;7.60;3.80;;;4.50;99.90;;;;;;5127178;27;20084;-64
2024/02/24 06:06:18;;;;;;;6.18;3.72;;;4.50;99.90;;;;;;5126174;27;20051;-63
2024/02/24 06:08:44;;;;;;;5.10;3.25;;;4.40;99.90;;;;;;5130477;27;20409;-63
2024/02/24 06:11:10;;;;;;;7.70;3.13;;;4.50;99.90;;;;;;5125417;27;20041;-63
2024/02/24 06:13:36;;;;;;;5.32;3.13;;;4.50;99.90;;;;;;5128961;27;20042;-64
2024/02/24 06:16:01;;;;;;;4.35;2.92;;;4.40;99.90;;;;;;5125612;27;20045;-63
2024/02/24 06:18:30;;;;;;;4.10;3.17;;;4.50;99.90;;;;;;5127546;27;20040;-63
2024/02/24 06:20:56;;;;;;;6.68;3.00;;;4.50;99.90;;;;;;5128093;27;20050;-64
2024/02/24 06:23:21;;;;;;;6.75;2.83;;;4.50;99.90;;;;;;5128046;27;20125;-64
2024/02/24 06:25:47;;;;;;;4.20;3.03;;;4.40;99.90;;;;;;5127835;27;20038;-63
2024/02/24 06:28:14;;;;;;;4.85;3.08;;;4.40;99.90;;;;;;5127046;27;20043;-64
2024/02/24 06:30:40;;;;;;;5.70;3.53;;;4.30;99.90;;;;;;5127724;27;20537;-63
2024/02/24 06:33:07;;;;;;;4.60;2.88;;;4.40;99.90;;;;;;5131054;27;20049;-64
2024/02/24 06:35:33;;;;;;;5.38;3.00;;;4.40;99.90;;;;;;5125689;27;20331;-63
2024/02/24 06:37:59;;;;;;;6.60;3.13;;;4.40;99.90;;;;;;5126996;27;20057;-63
2024/02/24 06:40:25;;;;;;;4.75;2.88;;;4.40;99.90;;;;;;5126462;27;20486;-63
2024/02/24 06:42:51;;;;;;;4.07;2.92;;;4.40;99.90;;;;;;5129369;27;20035;-63
2024/02/24 06:45:17;;;;;;;6.15;2.90;;;4.30;99.90;;;;;;5125072;27;20046;-63
2024/02/24 06:47:43;;;;;;;5.38;2.88;;;4.40;99.90;;;;;;5125252;27;20034;-63
2024/02/24 06:50:08;;;;;;;3.95;2.95;;;4.30;99.90;;;;;;5126509;27;20131;-64
2024/02/24 06:52:34;;;;;;;4.72;3.53;;;4.40;99.90;;;;;;5127788;27;20042;-63
2024/02/24 06:55:00;;;;;;;5.07;3.10;;;4.30;99.90;;;;;;5128751;27;20282;-64
2024/02/24 06:57:26;;;;;;;4.30;3.03;;;4.40;99.90;;;;;;5127261;27;20509;-64
2024/02/24 06:59:52;;;;;;;5.65;3.25;;;4.40;99.90;;;;;;5126339;27;20409;-63
2024/02/24 07:02:18;;;;;;;3.72;3.15;;;4.40;99.90;;;;;;5127018;27;20082;-63
2024/02/24 07:04:44;;;;;;;4.22;3.13;;;4.40;99.90;;;;;;5128778;27;20039;-63
2024/02/24 07:07:10;;;;;;;4.43;3.35;;;4.50;99.90;;;;;;5127449;27;20131;-64
2024/02/24 07:09:36;;;;;;;4.00;3.08;;;4.50;99.90;;;;;;5128523;27;20122;-63
2024/02/24 07:12:02;;;;;;;5.55;3.28;;;4.40;99.90;;;;;;5127998;27;20469;-64
2024/02/24 07:14:28;;;;;;;4.28;2.85;;;4.50;99.90;;;;;;5124508;27;20039;-64
2024/02/24 07:16:54;;;;;;;5.95;3.60;;;4.50;99.90;;;;;;5127515;27;20061;-63
2024/02/24 07:19:20;;;;;;;4.25;3.00;;;4.40;99.90;;;;;;5127430;27;20035;-64
2024/02/24 07:21:46;;;;;;;4.00;2.88;;;4.50;99.90;;;;;;5126484;27;20134;-63
2024/02/24 07:24:13;;;;;;;4.78;2.72;;;4.40;99.90;;;;;;5126718;27;20361;-63
2024/02/24 07:26:45;;;;;;;6.03;3.20;;;4.20;99.90;;;;;;5125081;27;20035;-63
2024/02/24 07:29:11;;;;;;;3.83;3.13;;;4.50;99.90;;;;;;5125880;27;20607;-63
2024/02/24 07:31:37;;;;;;;5.63;3.60;;;4.50;99.90;;;;;;5126486;27;20042;-63
2024/02/24 07:34:03;;;;;;;8.10;3.22;;;4.50;99.90;;;;;;5126518;27;20059;-64
2024/02/24 07:36:29;;;;;;;4.38;3.03;;;4.50;99.90;;;;;;5126010;27;20048;-64
2024/02/24 07:38:58;;;;;;;4.72;3.33;;;4.60;99.90;;;;;;5123430;27;20520;-64
2024/02/24 07:41:24;;;;;;;3.47;3.15;;;4.60;99.90;;;;;;5123361;27;20489;-64
2024/02/24 07:43:50;;;;;;;4.18;2.92;;;4.70;99.90;;;;;;5125878;27;20045;-63
2024/02/24 07:46:34;;;;;;;3.83;3.00;;;4.80;99.90;;;;;;5127079;27;20083;-63
2024/02/24 07:49:01;;;;;;;3.70;2.80;;;4.80;99.90;;;;;;5128015;27;20039;-63
2024/02/24 07:51:28;;;;;;;9.15;3.78;;;4.80;99.90;;;;;;5126209;27;20046;-63
2024/02/24 07:53:54;;;;;;;4.30;3.40;;;4.80;99.90;;;;;;5126110;27;20047;-64
2024/02/24 07:56:21;;;;;;;5.35;3.50;;;4.90;99.90;;;;;;5128251;27;20043;-63
2024/02/24 07:58:49;;;;;;;4.85;3.53;;;4.90;99.90;;;;;;5124983;27;20607;-63
2024/02/24 08:01:14;;;;;;;4.30;3.58;;;5.00;99.90;;;;;;5130600;27;20042;-63
2024/02/24 08:03:40;;;;;;;4.78;3.30;;;5.00;99.90;;;;;;5128914;27;20053;-62
2024/02/24 08:06:06;;;;;;;4.60;3.55;;;5.00;99.90;;;;;;5128883;27;20043;-63
2024/02/24 08:08:34;;;;;;;7.50;3.67;;;5.10;99.90;;;;;;5129924;27;20051;-63
2024/02/24 08:11:01;;;;;;;3.78;3.38;;;5.20;99.90;;;;;;5128407;27;20065;-63
2024/02/24 08:13:27;;;;;;;4.00;3.40;;;5.20;99.90;;;;;;5131388;27;20035;-62
2024/02/24 08:15:53;;;;;;;3.92;3.40;;;5.30;99.90;;;;;;5127835;27;20562;-62
2024/02/24 08:18:19;;;;;;;4.75;4.00;;;5.40;99.90;;;;;;5126146;27;20564;-62
2024/02/24 08:20:45;;;;;;;6.40;3.90;;;5.40;99.90;;;;;;5127723;27;20027;-62
2024/02/24 08:23:10;;;;;;;6.05;3.97;;;5.50;99.90;;;;;;5128879;27;20509;-63
2024/02/24 08:25:36;;;;;;;5.78;4.20;;;5.60;99.90;;;;;;5130404;27;20035;-62
2024/02/24 08:28:02;;;;;;;11.40;4.03;;;5.60;99.90;;;;;;5126499;27;20100;-63
2024/02/24 08:30:28;;;;;;;8.63;3.85;;;5.70;99.90;;;;;;5130086;27;20789;-63
2024/02/24 08:32:54;;;;;;;6.00;4.03;;;5.70;99.90;;;;;;5127354;27;20054;-63
2024/02/24 08:35:20;;;;;;;7.18;4.25;;;5.80;99.90;;;;;;5131682;27;20043;-62
2024/02/24 08:37:45;;;;;;;5.25;4.10;;;5.80;99.90;;;;;;5128283;27;20521;-63
2024/02/24 08:40:12;;;;;;;8.32;4.40;;;5.90;99.90;;;;;;5130495;27;20034;-62
2024/02/24 08:42:38;;;;;;;6.07;4.50;;;5.90;99.90;;;;;;5119600;27;20520;-62
2024/02/24 08:45:04;;;;;;;6.90;4.35;;;6.00;99.90;;;;;;5129600;27;20073;-62
2024/02/24 08:47:31;;;;;;;4.78;3.92;;;6.10;99.90;;;;;;5128299;27;20058;-62
2024/02/24 08:49:57;;;;;;;7.03;4.90;;;6.10;99.90;;;;;;5130643;27;20046;-62
2024/02/24 08:52:23;;;;;;;7.78;4.80;;;6.10;99.90;;;;;;5126298;27;20039;-63
2024/02/24 08:54:49;;;;;;;7.43;4.68;;;6.20;99.90;;;;;;5127864;27;20046;-63
2024/02/24 08:57:16;;;;;;;8.38;5.35;;;6.20;99.90;;;;;;5129824;27;20043;-62
2024/02/24 08:59:42;;;;;;;7.75;5.28;;;6.20;99.90;;;;;;5130802;27;20440;-63
2024/02/24 09:02:07;;;;;;;7.75;5.28;;;6.30;99.90;;;;;;5127613;27;20042;-63
2024/02/24 09:04:37;;;;;;;10.20;5.60;;;6.30;99.90;;;;;;5127896;27;20513;-64
2024/02/24 09:07:03;;;;;;;8.30;5.28;;;6.30;99.90;;;;;;5127539;27;20039;-63
2024/02/24 09:09:29;;;;;;;7.65;5.78;;;6.40;99.90;;;;;;5128754;27;20492;-62
2024/02/24 09:11:55;;;;;;;8.35;6.05;;;6.40;99.90;;;;;;5125844;27;20312;-62
2024/02/24 09:14:20;;;;;;;6.93;5.47;;;6.40;99.90;;;;;;5131022;27;20134;-62
2024/02/24 09:16:46;;;;;;;6.70;6.00;;;6.40;99.90;;;;;;5125033;27;20055;-63
2024/02/24 09:19:12;;;;;;;7.93;5.68;;;6.50;99.90;;;;;;5129375;27;20026;-62
2024/02/24 09:21:38;;;;;;;7.50;6.05;;;6.50;99.90;;;;;;5127642;27;20110;-63
2024/02/24 09:24:04;;;;;;;8.98;5.88;;;6.50;99.90;;;;;;5127600;27;20031;-63
2024/02/24 09:26:29;;;;;;;9.20;6.75;;;6.60;99.90;;;;;;5125851;27;20051;-63
2024/02/24 09:28:55;;;;;;;10.90;6.82;;;6.60;99.90;;;;;;5129398;27;20042;-62
2024/02/24 09:31:22;;;;;;;8.82;6.65;;;6.60;99.90;;;;;;5127482;27;20114;-62
2024/02/24 09:33:54;;;;;;;8.77;6.93;;;6.70;99.90;;;;;;5126294;27;20043;-62
2024/02/24 09:36:20;;;;;;;9.88;7.38;;;6.70;99.90;;;;;;5127981;27;20501;-63
2024/02/24 09:38:45;;;;;;;9.80;8.07;;;6.70;99.90;;;;;;5128148;27;20053;-62
2024/02/24 09:41:11;;;;;;;11.13;7.95;;;6.80;99.90;;;;;;5125309;27;20142;-62
2024/02/24 09:43:38;;;;;;;10.60;8.35;;;6.80;99.90;;;;;;5125898;27;20520;-63
2024/02/24 09:46:08;;;;;;;10.10;7.75;;;6.80;99.90;;;;;;5125940;27;20039;-62
2024/02/24 09:48:34;;;;;;;12.38;8.00;;;6.90;99.90;;;;;;5125322;27;20037;-63
2024/02/24 09:51:00;;;;;;;11.75;7.80;;;6.90;99.90;;;;;;5124923;27;20578;-62
2024/02/24 09:53:25;;;;;;;10.88;7.72;;;6.90;99.90;;;;;;5126547;27;20026;-62
2024/02/24 09:55:53;;;;;;;11.60;7.47;;;6.90;99.90;;;;;;5124800;27;20537;-62
2024/02/24 09:58:20;;;;;;;10.80;7.90;;;6.90;99.90;;;;;;5122792;27;20046;-63
2024/02/24 10:00:50;;;;;;;10.02;7.45;;;6.90;99.90;;;;;;5126708;27;20031;-63
2024/02/24 10:03:16;;;;;;;11.57;8.38;;;6.90;99.90;;;;;;5126977;27;20035;-62
2024/02/24 10:05:47;;;;;;;12.23;8.15;;;6.90;99.90;;;;;;5126999;27;20389;-63
2024/02/24 10:08:12;;;;;;;10.40;8.18;;;6.90;99.90;;;;;;5129209;27;20979;-62
2024/02/24 10:10:38;;;;;;;12.30;9.15;;;7.00;99.90;;;;;;5128992;27;20085;-63
2024/02/24 10:13:04;;;;;;;9.23;7.68;;;7.00;99.90;;;;;;5128955;27;20039;-63
2024/02/24 10:15:30;;;;;;;12.75;8.98;;;7.10;99.90;;;;;;5125378;27;21106;-63
2024/02/24 10:17:59;;;;;;;14.55;10.00;;;7.10;99.90;;;;;;5128181;27;20039;-63
2024/02/24 10:20:27;;;;;;;13.52;9.50;;;7.20;99.90;;;;;;5127933;27;20419;-63
2024/02/24 10:22:53;;;;;;;11.55;9.68;;;7.30;99.90;;;;;;5124029;27;20077;-63
2024/02/24 10:25:19;;;;;;;12.75;9.20;;;7.40;99.90;;;;;;5126861;27;20031;-62
2024/02/24 10:27:46;;;;;;;12.25;9.45;;;7.50;99.90;;;;;;5109031;27;20043;-63
2024/02/24 10:30:12;;;;;;;14.65;10.93;;;7.60;99.90;;;;;;5122716;27;20120;-63
2024/02/24 10:32:39;;;;;;;13.30;10.30;;;7.70;99.90;;;;;;5132060;27;20030;-63
2024/02/24 10:35:06;;;;;;;11.68;9.40;;;7.80;99.90;;;;;;5128416;27;20130;-63
2024/02/24 10:37:36;;;;;;;13.27;10.43;;;7.80;99.90;;;;;;5125813;27;20038;-63
2024/02/24 10:40:05;;;;;;;17.15;10.40;;;7.90;99.90;;;;;;5120166;27;20118;-63
2024/02/24 10:42:32;;;;;;;12.27;9.52;;;7.90;99.90;;;;;;5123359;27;20031;-65
2024/02/24 10:44:58;;;;;;;11.20;8.15;;;7.80;99.90;;;;;;5125059;27;20107;-63
2024/02/24 10:47:24;;;;;;;11.35;8.77;;;7.80;99.90;;;;;;5133524;27;20046;-63
2024/02/24 10:49:50;;;;;;;11.32;9.23;;;7.90;99.90;;;;;;5128371;27;20221;-63
2024/02/24 10:52:18;;;;;;;13.50;8.88;;;7.80;99.90;;;;;;5129292;27;20035;-62
2024/02/24 10:54:46;;;;;;;12.32;8.50;;;7.90;99.90;;;;;;5129416;27;20452;-62
2024/02/24 10:57:15;;;;;;;11.10;7.93;;;7.90;99.90;;;;;;5129877;27;20034;-63
2024/02/24 10:59:41;;;;;;;16.52;8.57;;;8.00;99.90;;;;;;5126528;27;20092;-62
2024/02/24 11:02:08;;;;;;;11.55;7.65;;;8.00;99.90;;;;;;5126772;27;20031;-62
2024/02/24 11:04:35;;;;;;;10.07;8.38;;;8.20;99.90;;;;;;5124402;27;20826;-62
2024/02/24 11:07:02;;;;;;;11.13;8.63;;;8.00;99.90;;;;;;5122671;27;20039;-63
2024/02/24 11:09:40;;;;;;;10.32;7.78;;;8.00;99.90;;;;;;5127030;27;20054;-62
2024/02/24 11:12:11;;;;;;;13.82;9.50;;;8.00;99.90;;;;;;5128513;27;20038;-63
2024/02/24 11:14:38;;;;;;;9.60;7.90;;;8.00;99.90;;;;;;5124745;27;20089;-63
2024/02/24 11:17:04;;;;;;;10.57;8.45;;;8.10;99.90;;;;;;5124043;27;20078;-64
2024/02/24 11:19:46;;;;;;;13.50;8.27;;;8.20;99.90;;;;;;5125245;27;20047;-63
2024/02/24 11:22:18;;;;;;;12.52;7.80;;;8.20;99.90;;;;;;5122022;27;20270;-62
2024/02/24 11:24:44;;;;;;;9.40;8.40;;;8.30;99.90;;;;;;5125959;27;20509;-63
2024/02/24 11:27:11;;;;;;;10.82;7.75;;;8.30;99.90;;;;;;5115872;27;20291;-63
2024/02/24 11:29:38;;;;;;;8.80;7.15;;;8.40;99.90;;;;;;5124491;27;20034;-62
2024/02/24 11:32:14;;;;;;;9.38;7.20;;;8.40;99.90;;;;;;5123603;27;20039;-63
2024/02/24 11:34:44;;;;;;;8.48;6.35;;;8.40;99.90;;;;;;5128148;27;20053;-63
2024/02/24 11:37:16;;;;;;;9.13;6.32;;;8.30;99.90;;;;;;5125735;27;20048;-61
2024/02/24 11:39:42;;;;;;;9.02;6.13;;;8.40;99.90;;;;;;5127627;27;20095;-62
2024/02/24 11:42:11;;;;;;;7.47;6.68;;;8.50;99.90;;;;;;5121691;27;20661;-63
2024/02/24 11:44:42;;;;;;;7.63;6.35;;;8.60;99.90;;;;;;5123109;27;20528;-62
2024/02/24 11:47:08;;;;;;;8.95;6.22;;;8.70;99.90;;;;;;5129274;27;20152;-63
2024/02/24 11:49:33;;;;;;;7.88;5.70;;;9.00;99.90;;;;;;5128683;27;20114;-62
2024/02/24 11:51:59;;;;;;;7.05;5.72;;;9.10;99.90;;;;;;5125821;27;20102;-63
2024/02/24 11:54:27;;;;;;;6.80;5.60;;;9.20;99.90;;;;;;5126376;27;20525;-62
2024/02/24 11:56:52;;;;;;;6.47;5.28;;;9.20;99.90;;;;;;5126079;27;20118;-62
2024/02/24 11:59:18;;;;;;;9.75;5.85;;;9.50;99.90;;;;;;5130568;27;20041;-62
2024/02/24 12:01:44;;;;;;;6.47;5.72;;;9.60;99.90;;;;;;5126656;27;20058;-62
2024/02/24 12:04:13;;;;;;;5.68;5.00;;;9.90;99.90;;;;;;5125655;27;20118;-63
2024/02/24 12:06:43;;;;;;;5.15;4.65;;;9.90;99.90;;;;;;5125721;27;20035;-62
2024/02/24 12:09:09;;;;;;;6.82;4.78;;;10.00;99.90;;;;;;5129334;27;20130;-62
2024/02/24 12:11:35;;;;;;;5.90;4.50;;;9.90;99.90;;;;;;5121769;27;20045;-63
2024/02/24 12:14:02;;;;;;;6.63;4.68;;;9.80;99.90;;;;;;5129369;27;20035;-62
2024/02/24 12:16:28;;;;;;;6.13;5.43;;;9.80;99.90;;;;;;5128718;27;20042;-62
2024/02/24 12:18:56;;;;;;;6.15;4.28;;;9.70;99.90;;;;;;5130897;27;20220;-63
2024/02/24 12:21:25;;;;;;;6.32;4.90;;;9.70;99.90;;;;;;5124954;27;20064;-62
2024/02/24 12:23:55;;;;;;;5.60;4.82;;;10.00;99.90;;;;;;5128477;27;20046;-62
2024/02/24 12:26:21;;;;;;;6.20;4.63;;;9.90;99.90;;;;;;5129123;27;20027;-61
2024/02/24 12:28:47;;;;;;;6.18;4.63;;;9.90;99.90;;;;;;5120119;27;20066;-63
2024/02/24 12:31:17;;;;;;;7.15;4.75;;;10.10;99.90;;;;;;5125031;27;20065;-61
2024/02/24 12:33:44;;;;;;;6.82;4.55;;;9.80;99.90;;;;;;5125124;27;20432;-62
2024/02/24 12:36:12;;;;;;;6.07;4.20;;;9.70;99.90;;;;;;5121574;27;20042;-63
2024/02/24 12:38:39;;;;;;;7.00;5.00;;;9.80;99.90;;;;;;5122571;27;20039;-62
2024/02/24 12:41:14;;;;;;;5.07;3.85;;;9.70;99.90;;;;;;5124845;27;20158;-62
2024/02/24 12:43:41;;;;;;;5.63;3.90;;;9.60;99.90;;;;;;5125390;27;20042;-62
2024/02/24 12:46:08;;;;;;;5.15;3.88;;;9.50;99.90;;;;;;5123489;27;20519;-63
2024/02/24 12:48:34;;;;;;;2.63;2.20;;;9.30;99.90;;;;;;5128767;27;20084;-62
2024/02/24 12:51:00;;;;;;;3.00;0.93;;;8.90;99.90;;;;;;5123818;27;20043;-62